sensor_id;sensor_type;location;lat;lon;timestamp;P1;durP1;ratioP1;P2;durP2;ratioP2
67712;SDS011;67640;55.784;49.138;2023-03-22T00:02:32;22.63;;;9.53;;
67712;SDS011;67640;55.784;49.138;2023-03-22T00:07:52;23.35;;;9.50;;
67712;SDS011;67640;55.784;49.138;2023-03-22T00:13:11;22.10;;;9.20;;
67712;SDS011;67640;55.784;49.138;2023-03-22T00:18:16;21.40;;;8.85;;
67712;SDS011;67640;55.784;49.138;2023-03-22T00:23:35;25.40;;;9.25;;
67712;SDS011;67640;55.784;49.138;2023-03-22T00:28:40;23.23;;;9.30;;
67712;SDS011;67640;55.784;49.138;2023-03-22T00:33:45;26.33;;;9.45;;
67712;SDS011;67640;55.784;49.138;2023-03-22T00:39:04;32.53;;;9.83;;
67712;SDS011;67640;55.784;49.138;2023-03-22T00:44:10;33.95;;;11.18;;
67712;SDS011;67640;55.784;49.138;2023-03-22T00:49:29;31.23;;;10.55;;
67712;SDS011;67640;55.784;49.138;2023-03-22T00:54:48;27.33;;;8.93;;
67712;SDS011;67640;55.784;49.138;2023-03-22T00:59:53;20.05;;;8.25;;
67712;SDS011;67640;55.784;49.138;2023-03-22T01:05:10;23.80;;;8.60;;
67712;SDS011;67640;55.784;49.138;2023-03-22T01:10:16;18.90;;;7.30;;
67712;SDS011;67640;55.784;49.138;2023-03-22T01:15:22;19.90;;;7.55;;
67712;SDS011;67640;55.784;49.138;2023-03-22T01:20:41;18.32;;;7.25;;
67712;SDS011;67640;55.784;49.138;2023-03-22T01:26:00;17.40;;;7.67;;
67712;SDS011;67640;55.784;49.138;2023-03-22T01:31:19;16.80;;;6.87;;
67712;SDS011;67640;55.784;49.138;2023-03-22T01:36:38;15.87;;;6.47;;
67712;SDS011;67640;55.784;49.138;2023-03-22T01:41:43;16.35;;;6.53;;
67712;SDS011;67640;55.784;49.138;2023-03-22T01:47:01;14.65;;;6.45;;
67712;SDS011;67640;55.784;49.138;2023-03-22T01:57:32;19.37;;;8.35;;
67712;SDS011;67640;55.784;49.138;2023-03-22T02:02:51;17.10;;;6.83;;
67712;SDS011;67640;55.784;49.138;2023-03-22T02:08:11;20.20;;;6.63;;
67712;SDS011;67640;55.784;49.138;2023-03-22T02:13:36;15.50;;;6.15;;
67712;SDS011;67640;55.784;49.138;2023-03-22T02:46:29;14.33;;;6.00;;
67712;SDS011;67640;55.784;49.138;2023-03-22T02:52:01;13.57;;;5.47;;
67712;SDS011;67640;55.784;49.138;2023-03-22T03:02:32;14.87;;;5.85;;
67712;SDS011;67640;55.784;49.138;2023-03-22T03:07:53;20.75;;;7.50;;
67712;SDS011;67640;55.784;49.138;2023-03-22T03:13:13;23.10;;;7.37;;
67712;SDS011;67640;55.784;49.138;2023-03-22T03:46:05;16.73;;;5.67;;
67712;SDS011;67640;55.784;49.138;2023-03-22T03:51:11;21.12;;;8.00;;
67712;SDS011;67640;55.784;49.138;2023-03-22T03:56:16;14.33;;;6.58;;
67712;SDS011;67640;55.784;49.138;2023-03-22T04:01:21;12.47;;;5.45;;
67712;SDS011;67640;55.784;49.138;2023-03-22T04:06:38;14.95;;;5.80;;
67712;SDS011;67640;55.784;49.138;2023-03-22T04:11:43;14.73;;;5.77;;
67712;SDS011;67640;55.784;49.138;2023-03-22T04:16:49;21.65;;;5.78;;
67712;SDS011;67640;55.784;49.138;2023-03-22T04:21:54;16.93;;;5.87;;
67712;SDS011;67640;55.784;49.138;2023-03-22T04:27:17;16.27;;;5.97;;
67712;SDS011;67640;55.784;49.138;2023-03-22T04:32:24;13.03;;;5.83;;
67712;SDS011;67640;55.784;49.138;2023-03-22T04:37:29;22.37;;;7.35;;
67712;SDS011;67640;55.784;49.138;2023-03-22T04:42:46;21.17;;;7.20;;
67712;SDS011;67640;55.784;49.138;2023-03-22T04:47:51;22.27;;;6.75;;
67712;SDS011;67640;55.784;49.138;2023-03-22T04:53:13;29.72;;;8.73;;
67712;SDS011;67640;55.784;49.138;2023-03-22T04:58:19;27.17;;;8.60;;
67712;SDS011;67640;55.784;49.138;2023-03-22T05:03:24;20.97;;;8.40;;
67712;SDS011;67640;55.784;49.138;2023-03-22T05:08:41;28.92;;;8.68;;
67712;SDS011;67640;55.784;49.138;2023-03-22T05:13:46;25.85;;;8.75;;
67712;SDS011;67640;55.784;49.138;2023-03-22T05:18:51;24.80;;;8.77;;
67712;SDS011;67640;55.784;49.138;2023-03-22T05:24:10;22.52;;;7.90;;
67712;SDS011;67640;55.784;49.138;2023-03-22T05:29:29;15.80;;;6.23;;
67712;SDS011;67640;55.784;49.138;2023-03-22T05:34:47;17.82;;;5.55;;
67712;SDS011;67640;55.784;49.138;2023-03-22T05:39:53;23.32;;;7.95;;
67712;SDS011;67640;55.784;49.138;2023-03-22T05:45:13;16.45;;;6.37;;
67712;SDS011;67640;55.784;49.138;2023-03-22T05:50:19;17.80;;;6.42;;
67712;SDS011;67640;55.784;49.138;2023-03-22T05:55:51;17.77;;;6.40;;
67712;SDS011;67640;55.784;49.138;2023-03-22T06:00:57;20.27;;;9.45;;
67712;SDS011;67640;55.784;49.138;2023-03-22T06:06:30;15.15;;;6.37;;
67712;SDS011;67640;55.784;49.138;2023-03-22T06:11:35;18.77;;;7.50;;
67712;SDS011;67640;55.784;49.138;2023-03-22T06:16:55;20.52;;;8.60;;
67712;SDS011;67640;55.784;49.138;2023-03-22T06:22:14;17.03;;;6.83;;
67712;SDS011;67640;55.784;49.138;2023-03-22T06:27:33;17.50;;;6.95;;
67712;SDS011;67640;55.784;49.138;2023-03-22T06:32:52;16.90;;;7.20;;
67712;SDS011;67640;55.784;49.138;2023-03-22T06:37:57;19.15;;;6.83;;
67712;SDS011;67640;55.784;49.138;2023-03-22T06:43:02;18.65;;;7.03;;
67712;SDS011;67640;55.784;49.138;2023-03-22T06:48:07;14.97;;;6.83;;
67712;SDS011;67640;55.784;49.138;2023-03-22T06:53:26;20.95;;;7.58;;
67712;SDS011;67640;55.784;49.138;2023-03-22T06:58:45;23.83;;;9.03;;
67712;SDS011;67640;55.784;49.138;2023-03-22T07:03:50;14.90;;;6.72;;
67712;SDS011;67640;55.784;49.138;2023-03-22T07:08:56;18.17;;;6.85;;
67712;SDS011;67640;55.784;49.138;2023-03-22T07:14:01;20.43;;;7.40;;
67712;SDS011;67640;55.784;49.138;2023-03-22T07:19:05;18.75;;;6.58;;
67712;SDS011;67640;55.784;49.138;2023-03-22T07:24:25;15.10;;;6.50;;
67712;SDS011;67640;55.784;49.138;2023-03-22T07:29:45;21.25;;;7.00;;
67712;SDS011;67640;55.784;49.138;2023-03-22T07:35:05;16.65;;;7.20;;
67712;SDS011;67640;55.784;49.138;2023-03-22T07:40:10;18.30;;;7.30;;
67712;SDS011;67640;55.784;49.138;2023-03-22T07:45:16;17.60;;;6.95;;
67712;SDS011;67640;55.784;49.138;2023-03-22T07:50:35;16.23;;;6.83;;
67712;SDS011;67640;55.784;49.138;2023-03-22T07:55:40;16.10;;;6.63;;
67712;SDS011;67640;55.784;49.138;2023-03-22T08:01:02;18.63;;;7.13;;
67712;SDS011;67640;55.784;49.138;2023-03-22T08:06:04;19.10;;;7.08;;
67712;SDS011;67640;55.784;49.138;2023-03-22T08:11:11;22.02;;;8.70;;
67712;SDS011;67640;55.784;49.138;2023-03-22T08:16:30;27.30;;;9.43;;
67712;SDS011;67640;55.784;49.138;2023-03-22T08:27:34;27.50;;;10.30;;
67712;SDS011;67640;55.784;49.138;2023-03-22T08:32:39;24.60;;;9.10;;
67712;SDS011;67640;55.784;49.138;2023-03-22T08:37:44;26.90;;;9.83;;
67712;SDS011;67640;55.784;49.138;2023-03-22T08:43:03;25.08;;;8.63;;
67712;SDS011;67640;55.784;49.138;2023-03-22T08:48:22;20.65;;;8.85;;
67712;SDS011;67640;55.784;49.138;2023-03-22T08:53:42;20.33;;;7.90;;
67712;SDS011;67640;55.784;49.138;2023-03-22T08:58:46;23.00;;;8.35;;
67712;SDS011;67640;55.784;49.138;2023-03-22T09:03:52;21.42;;;8.20;;
67712;SDS011;67640;55.784;49.138;2023-03-22T09:08:57;22.55;;;9.08;;
67712;SDS011;67640;55.784;49.138;2023-03-22T09:14:20;20.10;;;7.85;;
67712;SDS011;67640;55.784;49.138;2023-03-22T09:19:26;21.68;;;8.10;;
67712;SDS011;67640;55.784;49.138;2023-03-22T09:24:47;27.77;;;12.13;;
67712;SDS011;67640;55.784;49.138;2023-03-22T09:30:12;18.10;;;8.05;;
67712;SDS011;67640;55.784;49.138;2023-03-22T09:35:39;21.77;;;8.53;;
67712;SDS011;67640;55.784;49.138;2023-03-22T09:52:18;20.43;;;8.43;;
67712;SDS011;67640;55.784;49.138;2023-03-22T09:57:37;20.82;;;8.88;;
67712;SDS011;67640;55.784;49.138;2023-03-22T10:13:51;22.05;;;8.33;;
67712;SDS011;67640;55.784;49.138;2023-03-22T10:24:33;22.00;;;9.05;;
67712;SDS011;67640;55.784;49.138;2023-03-22T10:35:19;20.30;;;9.13;;
67712;SDS011;67640;55.784;49.138;2023-03-22T10:40:38;26.57;;;9.55;;
67712;SDS011;67640;55.784;49.138;2023-03-22T10:45:58;22.87;;;8.53;;
67712;SDS011;67640;55.784;49.138;2023-03-22T10:51:06;21.95;;;8.98;;
67712;SDS011;67640;55.784;49.138;2023-03-22T10:56:17;22.13;;;8.67;;
67712;SDS011;67640;55.784;49.138;2023-03-22T11:01:36;19.20;;;7.78;;
67712;SDS011;67640;55.784;49.138;2023-03-22T11:06:57;22.90;;;8.15;;
67712;SDS011;67640;55.784;49.138;2023-03-22T11:12:16;17.67;;;7.77;;
67712;SDS011;67640;55.784;49.138;2023-03-22T11:17:21;19.10;;;7.87;;
67712;SDS011;67640;55.784;49.138;2023-03-22T11:22:41;19.93;;;8.30;;
67712;SDS011;67640;55.784;49.138;2023-03-22T11:39:05;20.40;;;7.83;;
67712;SDS011;67640;55.784;49.138;2023-03-22T11:44:11;18.45;;;8.03;;
67712;SDS011;67640;55.784;49.138;2023-03-22T11:49:34;18.67;;;8.07;;
67712;SDS011;67640;55.784;49.138;2023-03-22T11:54:48;16.73;;;8.18;;
67712;SDS011;67640;55.784;49.138;2023-03-22T12:05:50;20.60;;;7.87;;
67712;SDS011;67640;55.784;49.138;2023-03-22T12:10:59;19.05;;;8.15;;
67712;SDS011;67640;55.784;49.138;2023-03-22T12:16:20;17.32;;;7.95;;
67712;SDS011;67640;55.784;49.138;2023-03-22T12:21:37;19.23;;;8.50;;
67712;SDS011;67640;55.784;49.138;2023-03-22T12:26:59;21.35;;;8.03;;
67712;SDS011;67640;55.784;49.138;2023-03-22T12:32:19;20.23;;;7.30;;
67712;SDS011;67640;55.784;49.138;2023-03-22T12:53:34;19.87;;;7.10;;
67712;SDS011;67640;55.784;49.138;2023-03-22T12:58:55;18.85;;;7.67;;
67712;SDS011;67640;55.784;49.138;2023-03-22T13:09:54;16.35;;;7.05;;
67712;SDS011;67640;55.784;49.138;2023-03-22T13:20:21;18.07;;;7.03;;
67712;SDS011;67640;55.784;49.138;2023-03-22T13:30:53;14.98;;;7.28;;
67712;SDS011;67640;55.784;49.138;2023-03-22T13:47:32;15.15;;;6.97;;
67712;SDS011;67640;55.784;49.138;2023-03-22T13:58:03;35.58;;;13.30;;
67712;SDS011;67640;55.784;49.138;2023-03-22T14:03:34;16.95;;;6.80;;
67712;SDS011;67640;55.784;49.138;2023-03-22T14:08:41;18.53;;;7.10;;
67712;SDS011;67640;55.784;49.138;2023-03-22T14:13:48;16.55;;;7.47;;
67712;SDS011;67640;55.784;49.138;2023-03-22T14:19:10;19.73;;;7.47;;
67712;SDS011;67640;55.784;49.138;2023-03-22T14:24:28;19.75;;;7.75;;
67712;SDS011;67640;55.784;49.138;2023-03-22T14:29:48;22.15;;;8.10;;
67712;SDS011;67640;55.784;49.138;2023-03-22T14:51:12;17.02;;;7.58;;
67712;SDS011;67640;55.784;49.138;2023-03-22T14:56:31;17.27;;;7.05;;
67712;SDS011;67640;55.784;49.138;2023-03-22T15:07:02;17.87;;;7.55;;
67712;SDS011;67640;55.784;49.138;2023-03-22T15:12:21;19.60;;;8.48;;
67712;SDS011;67640;55.784;49.138;2023-03-22T15:17:41;18.30;;;7.40;;
67712;SDS011;67640;55.784;49.138;2023-03-22T15:28:28;18.25;;;7.35;;
67712;SDS011;67640;55.784;49.138;2023-03-22T15:33:45;18.10;;;7.27;;
67712;SDS011;67640;55.784;49.138;2023-03-22T15:38:51;16.55;;;7.15;;
67712;SDS011;67640;55.784;49.138;2023-03-22T15:55:39;17.45;;;7.08;;
67712;SDS011;67640;55.784;49.138;2023-03-22T16:05:50;16.93;;;7.00;;
67712;SDS011;67640;55.784;49.138;2023-03-22T16:10:55;18.60;;;7.08;;
67712;SDS011;67640;55.784;49.138;2023-03-22T16:16:15;15.72;;;6.80;;
67712;SDS011;67640;55.784;49.138;2023-03-22T16:21:34;15.65;;;6.67;;
67712;SDS011;67640;55.784;49.138;2023-03-22T16:26:54;17.10;;;5.97;;
67712;SDS011;67640;55.784;49.138;2023-03-22T16:31:59;14.90;;;6.27;;
67712;SDS011;67640;55.784;49.138;2023-03-22T16:42:24;14.18;;;5.97;;
67712;SDS011;67640;55.784;49.138;2023-03-22T16:47:29;13.73;;;5.50;;
67712;SDS011;67640;55.784;49.138;2023-03-22T16:52:37;15.35;;;5.87;;
67712;SDS011;67640;55.784;49.138;2023-03-22T16:57:56;11.15;;;5.05;;
67712;SDS011;67640;55.784;49.138;2023-03-22T17:03:15;13.73;;;5.20;;
67712;SDS011;67640;55.784;49.138;2023-03-22T17:08:35;12.85;;;5.62;;
67712;SDS011;67640;55.784;49.138;2023-03-22T17:13:41;11.57;;;4.60;;
67712;SDS011;67640;55.784;49.138;2023-03-22T17:18:47;12.07;;;4.95;;
67712;SDS011;67640;55.784;49.138;2023-03-22T17:23:52;13.05;;;4.72;;
67712;SDS011;67640;55.784;49.138;2023-03-22T17:29:10;11.68;;;4.70;;
67712;SDS011;67640;55.784;49.138;2023-03-22T17:34:15;11.48;;;4.62;;
67712;SDS011;67640;55.784;49.138;2023-03-22T17:39:34;12.53;;;3.95;;
67712;SDS011;67640;55.784;49.138;2023-03-22T17:44:54;11.63;;;4.03;;
67712;SDS011;67640;55.784;49.138;2023-03-22T17:50:13;13.28;;;4.78;;
67712;SDS011;67640;55.784;49.138;2023-03-22T17:55:33;9.70;;;4.20;;
67712;SDS011;67640;55.784;49.138;2023-03-22T18:00:38;10.53;;;3.75;;
67712;SDS011;67640;55.784;49.138;2023-03-22T18:05:43;10.93;;;4.03;;
67712;SDS011;67640;55.784;49.138;2023-03-22T18:10:49;10.97;;;4.23;;
67712;SDS011;67640;55.784;49.138;2023-03-22T18:15:55;8.33;;;3.50;;
67712;SDS011;67640;55.784;49.138;2023-03-22T18:21:14;10.65;;;4.00;;
67712;SDS011;67640;55.784;49.138;2023-03-22T18:26:24;8.40;;;3.37;;
67712;SDS011;67640;55.784;49.138;2023-03-22T18:31:43;10.75;;;3.77;;
67712;SDS011;67640;55.784;49.138;2023-03-22T18:37:02;8.43;;;3.70;;
67712;SDS011;67640;55.784;49.138;2023-03-22T18:42:19;9.03;;;3.57;;
67712;SDS011;67640;55.784;49.138;2023-03-22T18:47:24;7.50;;;3.02;;
67712;SDS011;67640;55.784;49.138;2023-03-22T18:52:44;9.10;;;3.50;;
67712;SDS011;67640;55.784;49.138;2023-03-22T18:57:49;9.05;;;3.83;;
67712;SDS011;67640;55.784;49.138;2023-03-22T19:03:08;10.18;;;3.70;;
67712;SDS011;67640;55.784;49.138;2023-03-22T19:08:27;11.90;;;3.37;;
67712;SDS011;67640;55.784;49.138;2023-03-22T19:13:33;11.60;;;3.62;;
67712;SDS011;67640;55.784;49.138;2023-03-22T19:18:38;10.40;;;3.63;;
67712;SDS011;67640;55.784;49.138;2023-03-22T19:23:48;10.50;;;4.20;;
67712;SDS011;67640;55.784;49.138;2023-03-22T19:34:31;14.28;;;5.03;;
67712;SDS011;67640;55.784;49.138;2023-03-22T19:39:36;13.65;;;4.78;;
67712;SDS011;67640;55.784;49.138;2023-03-22T19:44:42;12.35;;;3.37;;
67712;SDS011;67640;55.784;49.138;2023-03-22T19:50:01;8.80;;;2.87;;
67712;SDS011;67640;55.784;49.138;2023-03-22T19:55:21;8.95;;;3.77;;
67712;SDS011;67640;55.784;49.138;2023-03-22T20:00:40;8.60;;;3.65;;
67712;SDS011;67640;55.784;49.138;2023-03-22T20:11:25;15.85;;;5.37;;
67712;SDS011;67640;55.784;49.138;2023-03-22T20:16:31;11.87;;;4.20;;
67712;SDS011;67640;55.784;49.138;2023-03-22T20:21:49;12.03;;;4.20;;
67712;SDS011;67640;55.784;49.138;2023-03-22T20:26:54;13.83;;;4.12;;
67712;SDS011;67640;55.784;49.138;2023-03-22T20:32:00;8.03;;;3.70;;
67712;SDS011;67640;55.784;49.138;2023-03-22T20:37:19;10.65;;;4.30;;
67712;SDS011;67640;55.784;49.138;2023-03-22T20:42:38;11.75;;;3.95;;
67712;SDS011;67640;55.784;49.138;2023-03-22T20:47:58;9.30;;;3.73;;
67712;SDS011;67640;55.784;49.138;2023-03-22T20:53:17;11.88;;;4.62;;
67712;SDS011;67640;55.784;49.138;2023-03-22T20:58:23;12.00;;;4.47;;
67712;SDS011;67640;55.784;49.138;2023-03-22T21:03:52;16.30;;;6.45;;
67712;SDS011;67640;55.784;49.138;2023-03-22T21:08:58;17.90;;;6.70;;
67712;SDS011;67640;55.784;49.138;2023-03-22T21:14:17;20.77;;;6.25;;
67712;SDS011;67640;55.784;49.138;2023-03-22T21:19:47;17.30;;;5.78;;
67712;SDS011;67640;55.784;49.138;2023-03-22T21:24:52;24.13;;;6.37;;
67712;SDS011;67640;55.784;49.138;2023-03-22T21:35:36;15.58;;;5.90;;
67712;SDS011;67640;55.784;49.138;2023-03-22T21:40:55;17.17;;;5.10;;
67712;SDS011;67640;55.784;49.138;2023-03-22T21:46:32;11.63;;;4.75;;
67712;SDS011;67640;55.784;49.138;2023-03-22T21:51:40;12.65;;;4.60;;
67712;SDS011;67640;55.784;49.138;2023-03-22T21:57:01;12.90;;;4.35;;
67712;SDS011;67640;55.784;49.138;2023-03-22T22:02:06;17.05;;;4.55;;
67712;SDS011;67640;55.784;49.138;2023-03-22T22:07:12;12.90;;;4.15;;
67712;SDS011;67640;55.784;49.138;2023-03-22T22:12:42;11.40;;;4.85;;
67712;SDS011;67640;55.784;49.138;2023-03-22T22:17:48;13.93;;;4.60;;
67712;SDS011;67640;55.784;49.138;2023-03-22T22:23:22;12.90;;;5.00;;
67712;SDS011;67640;55.784;49.138;2023-03-22T22:28:27;14.40;;;5.03;;
67712;SDS011;67640;55.784;49.138;2023-03-22T22:33:34;13.97;;;5.13;;
67712;SDS011;67640;55.784;49.138;2023-03-22T22:38:56;15.97;;;5.83;;
67712;SDS011;67640;55.784;49.138;2023-03-22T22:44:01;18.27;;;6.53;;
67712;SDS011;67640;55.784;49.138;2023-03-22T22:49:06;13.43;;;6.20;;
67712;SDS011;67640;55.784;49.138;2023-03-22T22:54:37;15.60;;;5.47;;
67712;SDS011;67640;55.784;49.138;2023-03-22T22:59:42;14.25;;;6.03;;
67712;SDS011;67640;55.784;49.138;2023-03-22T23:05:13;15.08;;;5.97;;
67712;SDS011;67640;55.784;49.138;2023-03-22T23:10:19;13.13;;;5.70;;
67712;SDS011;67640;55.784;49.138;2023-03-22T23:15:24;16.48;;;5.70;;
67712;SDS011;67640;55.784;49.138;2023-03-22T23:20:42;13.75;;;5.28;;
67712;SDS011;67640;55.784;49.138;2023-03-22T23:25:48;10.70;;;4.75;;
67712;SDS011;67640;55.784;49.138;2023-03-22T23:31:19;11.57;;;4.70;;
67712;SDS011;67640;55.784;49.138;2023-03-22T23:36:24;12.25;;;5.10;;
67712;SDS011;67640;55.784;49.138;2023-03-22T23:41:54;15.03;;;4.75;;
67712;SDS011;67640;55.784;49.138;2023-03-22T23:46:59;12.35;;;4.62;;
67712;SDS011;67640;55.784;49.138;2023-03-22T23:52:04;12.18;;;5.28;;
67712;SDS011;67640;55.784;49.138;2023-03-22T23:57:11;12.80;;;5.10;;
